Terminal Aerodrome Forecast
Issued by NWS Sioux Falls, SD

Home | Current Version | Previous Version | Text Only | Print | Product List | Glossary On
Versions: 1 2 3 4 5 6 7 8 9 10 11 12 13 14 15 16 17 18 19 20 21 22
000
FTUS43 KFSD 241744
TAFFSD
TAF
KFSD 241744Z 2418/2518 30011KT 3SM -SN BR OVC004
      TEMPO 2418/2419 1SM -FZDZ BR
     FM241900 28007KT 4SM BR OVC004
     FM242200 22006KT 5SM BR OVC006
     FM250200 19006KT P6SM SCT009 BKN200
     FM251300 VRB04KT 4SM BR BKN012=

USA.gov is the U.S. government's official web portal to all federal, state and local government web resources and services.